Time;durP1;ratioP1;P1;durP2;ratioP2;P2;SDS_P1;SDS_P2;PMS_P1;PMS_P2;Temp;Humidity;BMP_temperature;BMP_pressure;BME280_temperature;BME280_humidity;BME280_pressure;Samples;Min_cycle;Max_cycle;Signal;HPM_P1;HPM_P2
2022/10/22 00:02:06;;;;;;;0.00;0.00;;;14.10;99.90;;;;;;5009991;28;20194;-69
2022/10/22 00:04:33;;;;;;;0.00;0.00;;;14.10;99.90;;;;;;5011224;28;20186;-68
2022/10/22 00:06:58;;;;;;;0.00;0.00;;;14.10;99.90;;;;;;5006735;28;20241;-68
2022/10/22 00:09:24;;;;;;;0.00;0.00;;;14.10;99.90;;;;;;5013251;28;20186;-69
2022/10/22 00:11:50;;;;;;;0.40;0.30;;;14.20;99.90;;;;;;5010140;28;20167;-69
2022/10/22 00:14:15;;;;;;;0.00;0.00;;;14.20;99.90;;;;;;5002081;28;20199;-69
2022/10/22 00:16:41;;;;;;;0.00;0.00;;;14.20;99.90;;;;;;5001622;28;20170;-69
2022/10/22 00:19:08;;;;;;;0.00;0.00;;;14.20;99.90;;;;;;5003811;28;20242;-69
2022/10/22 00:21:34;;;;;;;0.08;0.08;;;14.20;99.90;;;;;;5006106;28;20249;-69
2022/10/22 00:24:00;;;;;;;0.00;0.00;;;14.20;99.90;;;;;;4995194;28;20639;-69
2022/10/22 00:26:26;;;;;;;0.00;0.00;;;14.10;99.90;;;;;;5005550;28;20216;-70
2022/10/22 00:28:52;;;;;;;0.00;0.00;;;14.10;99.90;;;;;;5003131;28;20219;-70
2022/10/22 00:31:18;;;;;;;0.00;0.00;;;14.10;99.90;;;;;;5011682;28;20195;-70
2022/10/22 00:33:46;;;;;;;0.00;0.00;;;14.00;99.90;;;;;;5000041;28;20178;-69
2022/10/22 00:36:13;;;;;;;0.00;0.00;;;14.00;99.90;;;;;;5001520;28;20211;-69
2022/10/22 00:38:38;;;;;;;0.00;0.00;;;14.00;99.90;;;;;;4995869;28;20180;-69
2022/10/22 00:41:04;;;;;;;0.00;0.00;;;13.90;99.90;;;;;;5000774;28;20694;-69
2022/10/22 00:43:30;;;;;;;0.00;0.00;;;13.90;99.90;;;;;;5002414;28;20175;-69
2022/10/22 00:45:55;;;;;;;0.00;0.00;;;13.90;99.90;;;;;;5012221;28;20246;-69
2022/10/22 00:48:27;;;;;;;0.00;0.00;;;13.90;99.90;;;;;;5007980;28;20198;-69
2022/10/22 00:50:58;;;;;;;0.00;0.00;;;13.90;99.90;;;;;;5013307;28;20515;-69
2022/10/22 00:53:33;;;;;;;0.00;0.00;;;13.90;99.90;;;;;;5013101;28;20253;-69
2022/10/22 00:55:59;;;;;;;0.00;0.00;;;13.90;99.90;;;;;;5012456;28;20186;-69
2022/10/22 00:58:28;;;;;;;0.00;0.00;;;13.90;99.90;;;;;;5011427;28;20716;-69
2022/10/22 01:00:55;;;;;;;0.00;0.00;;;13.90;99.90;;;;;;4994764;28;20600;-69
2022/10/22 01:03:21;;;;;;;0.15;0.15;;;13.90;99.90;;;;;;4995333;28;20191;-70
2022/10/22 01:05:57;;;;;;;0.00;0.00;;;14.00;99.90;;;;;;4995509;28;20187;-70
2022/10/22 01:08:28;;;;;;;0.00;0.00;;;14.00;99.90;;;;;;5001403;28;20183;-69
2022/10/22 01:11:02;;;;;;;0.05;0.05;;;14.00;99.90;;;;;;5008325;28;20234;-70
2022/10/22 01:13:41;;;;;;;0.00;0.00;;;13.90;99.90;;;;;;5008274;28;20170;-69
2022/10/22 01:16:18;;;;;;;0.00;0.00;;;14.00;99.90;;;;;;5004330;28;20206;-69
2022/10/22 01:18:50;;;;;;;0.30;0.20;;;14.00;99.90;;;;;;5005315;28;20190;-69
2022/10/22 01:21:31;;;;;;;0.00;0.00;;;14.00;99.90;;;;;;4994051;28;20242;-69
2022/10/22 01:24:06;;;;;;;0.00;0.00;;;14.00;99.90;;;;;;5005722;28;20185;-69
2022/10/22 01:27:06;;;;;;;0.00;0.00;;;14.00;99.90;;;;;;5006121;28;20175;-69
2022/10/22 01:29:44;;;;;;;0.00;0.00;;;14.00;99.90;;;;;;5001955;28;20226;-69
2022/10/22 01:32:14;;;;;;;0.00;0.00;;;14.00;99.90;;;;;;5003837;28;20186;-69
2022/10/22 01:34:43;;;;;;;0.00;0.00;;;14.00;99.90;;;;;;4996739;28;20472;-69
2022/10/22 01:37:11;;;;;;;0.00;0.00;;;14.00;99.90;;;;;;5012797;28;20669;-69
2022/10/22 01:39:39;;;;;;;0.00;0.00;;;14.00;99.90;;;;;;5002612;28;20182;-69
2022/10/22 01:42:04;;;;;;;0.00;0.00;;;14.00;99.90;;;;;;5003403;28;20194;-70
2022/10/22 01:44:35;;;;;;;0.00;0.00;;;14.00;99.90;;;;;;4995542;28;20191;-70
2022/10/22 01:47:29;;;;;;;0.00;0.00;;;14.00;99.90;;;;;;5009675;28;20228;-70
2022/10/22 01:50:13;;;;;;;0.00;0.00;;;14.00;99.90;;;;;;5010127;28;20183;-70
2022/10/22 01:52:39;;;;;;;0.00;0.00;;;13.90;99.90;;;;;;5004861;28;20186;-69
2022/10/22 01:55:30;;;;;;;0.00;0.00;;;13.90;99.90;;;;;;4992878;28;20172;-70
2022/10/22 01:58:19;;;;;;;0.00;0.00;;;13.80;99.90;;;;;;4998785;28;20189;-70
2022/10/22 02:01:09;;;;;;;0.00;0.00;;;13.80;99.90;;;;;;4999460;28;20223;-70
2022/10/22 02:03:43;;;;;;;0.00;0.00;;;13.70;99.90;;;;;;4995473;28;20649;-70
2022/10/22 02:06:17;;;;;;;0.00;0.00;;;13.70;99.90;;;;;;4993227;28;20270;-69
2022/10/22 02:08:43;;;;;;;0.00;0.00;;;13.60;99.90;;;;;;5010958;28;20191;-70
2022/10/22 02:11:12;;;;;;;0.00;0.00;;;13.60;99.90;;;;;;5005141;28;20187;-69
2022/10/22 02:13:44;;;;;;;0.00;0.00;;;13.60;99.90;;;;;;4994924;28;20622;-70
2022/10/22 02:16:15;;;;;;;0.00;0.00;;;13.60;99.90;;;;;;4993151;28;20712;-69
2022/10/22 02:18:43;;;;;;;0.00;0.00;;;13.60;99.90;;;;;;4996228;28;20183;-70
2022/10/22 02:21:08;;;;;;;0.00;0.00;;;13.60;99.90;;;;;;5000527;28;20217;-69
2022/10/22 02:23:34;;;;;;;0.00;0.00;;;13.60;99.90;;;;;;5010623;28;20274;-70
2022/10/22 02:26:06;;;;;;;0.00;0.00;;;13.60;99.90;;;;;;5009558;28;20210;-70
2022/10/22 02:28:37;;;;;;;0.00;0.00;;;13.60;99.90;;;;;;5009170;28;20190;-69
2022/10/22 02:31:13;;;;;;;0.00;0.00;;;13.60;99.90;;;;;;5010512;28;20210;-70
2022/10/22 02:33:44;;;;;;;0.00;0.00;;;13.70;99.90;;;;;;4992773;28;20178;-70
2022/10/22 02:36:11;;;;;;;0.00;0.00;;;13.60;99.90;;;;;;5005361;28;20235;-69
2022/10/22 02:38:38;;;;;;;0.00;0.00;;;13.60;99.90;;;;;;4999727;28;20198;-69
2022/10/22 02:41:04;;;;;;;0.00;0.00;;;13.60;99.90;;;;;;4995706;28;20215;-69
2022/10/22 02:43:29;;;;;;;0.00;0.00;;;13.70;99.90;;;;;;5005120;28;20297;-69
2022/10/22 02:45:55;;;;;;;0.00;0.00;;;13.60;99.90;;;;;;5000581;28;20184;-69
2022/10/22 02:48:20;;;;;;;0.00;0.00;;;13.60;99.90;;;;;;5007346;28;20650;-69
2022/10/22 02:50:46;;;;;;;0.00;0.00;;;13.60;99.90;;;;;;5004755;28;20183;-69
2022/10/22 02:53:11;;;;;;;0.00;0.00;;;13.60;99.90;;;;;;4999680;28;20258;-68
2022/10/22 02:55:37;;;;;;;0.00;0.00;;;13.60;99.90;;;;;;4997377;28;20193;-69
2022/10/22 02:58:03;;;;;;;0.00;0.00;;;13.60;99.90;;;;;;4994658;28;20207;-69
2022/10/22 03:00:28;;;;;;;0.00;0.00;;;13.60;99.90;;;;;;4997085;28;20250;-69
2022/10/22 03:02:54;;;;;;;0.00;0.00;;;13.60;99.90;;;;;;5006138;28;20190;-69
2022/10/22 03:05:19;;;;;;;0.00;0.00;;;13.60;99.90;;;;;;4996106;28;20183;-69
2022/10/22 03:07:45;;;;;;;0.00;0.00;;;13.60;99.90;;;;;;5005212;28;20214;-69
2022/10/22 03:10:10;;;;;;;0.00;0.00;;;13.70;99.90;;;;;;5010367;28;20274;-69
2022/10/22 03:12:36;;;;;;;0.00;0.00;;;13.70;99.90;;;;;;4994654;28;20214;-69
2022/10/22 03:15:01;;;;;;;0.25;0.17;;;13.70;99.90;;;;;;4999081;28;20187;-69
2022/10/22 03:17:27;;;;;;;0.00;0.00;;;13.70;99.90;;;;;;5010178;28;20204;-69
2022/10/22 03:19:52;;;;;;;0.00;0.00;;;13.70;99.90;;;;;;4999786;28;20195;-69
2022/10/22 03:22:27;;;;;;;0.00;0.00;;;13.70;99.90;;;;;;5000683;28;20190;-69
2022/10/22 03:24:57;;;;;;;0.00;0.00;;;13.70;99.90;;;;;;5011786;28;20182;-69
2022/10/22 03:27:23;;;;;;;0.00;0.00;;;13.70;99.90;;;;;;5011558;28;20187;-69
2022/10/22 03:29:51;;;;;;;0.00;0.00;;;13.80;99.90;;;;;;5007793;28;20313;-69
2022/10/22 03:32:17;;;;;;;0.00;0.00;;;13.80;99.90;;;;;;5008903;28;20555;-68
2022/10/22 03:34:42;;;;;;;0.00;0.00;;;13.80;99.90;;;;;;5002661;28;20183;-69
2022/10/22 03:37:08;;;;;;;0.00;0.00;;;13.80;99.90;;;;;;5002505;28;20270;-68
2022/10/22 03:39:35;;;;;;;0.00;0.00;;;13.80;99.90;;;;;;4998348;28;20171;-69
2022/10/22 03:42:02;;;;;;;0.00;0.00;;;13.80;99.90;;;;;;4998917;28;20210;-68
2022/10/22 03:44:28;;;;;;;0.00;0.00;;;13.80;99.90;;;;;;5007384;28;20182;-68
2022/10/22 03:46:54;;;;;;;0.00;0.00;;;13.90;99.90;;;;;;5001428;28;20194;-68
2022/10/22 03:49:19;;;;;;;0.00;0.00;;;13.90;99.90;;;;;;5002371;28;20184;-68
2022/10/22 03:51:45;;;;;;;0.00;0.00;;;13.90;99.90;;;;;;5006615;28;20572;-68
2022/10/22 03:54:10;;;;;;;0.00;0.00;;;13.90;99.90;;;;;;4995952;28;20202;-68
2022/10/22 03:56:36;;;;;;;0.00;0.00;;;13.90;99.90;;;;;;4997290;28;20187;-68
2022/10/22 03:59:02;;;;;;;0.00;0.00;;;13.90;99.90;;;;;;5006047;28;20213;-68
2022/10/22 04:01:29;;;;;;;0.00;0.00;;;13.90;99.90;;;;;;4995493;28;20226;-68
2022/10/22 04:03:55;;;;;;;0.00;0.00;;;13.90;99.90;;;;;;5004856;28;20187;-67
2022/10/22 04:06:21;;;;;;;0.00;0.00;;;13.80;99.90;;;;;;4995713;28;20222;-68
2022/10/22 04:08:46;;;;;;;0.00;0.00;;;13.80;99.90;;;;;;5014259;28;20191;-68
2022/10/22 04:11:13;;;;;;;0.00;0.00;;;13.80;99.90;;;;;;5015132;28;20185;-68
2022/10/22 04:13:39;;;;;;;0.00;0.00;;;13.80;99.90;;;;;;5006968;28;20186;-68
2022/10/22 04:16:11;;;;;;;0.50;0.35;;;13.70;99.90;;;;;;5015058;28;20179;-68
2022/10/22 04:18:38;;;;;;;0.00;0.00;;;13.70;99.90;;;;;;5011243;28;20183;-68
2022/10/22 04:21:04;;;;;;;0.00;0.00;;;13.70;99.90;;;;;;5011606;28;20222;-68
2022/10/22 04:23:30;;;;;;;0.00;0.00;;;13.60;99.90;;;;;;4995234;28;20180;-68
2022/10/22 04:26:00;;;;;;;0.00;0.00;;;13.60;99.90;;;;;;5005937;28;20716;-68
2022/10/22 04:28:26;;;;;;;0.00;0.00;;;13.60;99.90;;;;;;5007342;28;20710;-67
2022/10/22 04:30:51;;;;;;;0.00;0.00;;;13.60;99.90;;;;;;5011352;28;20190;-68
2022/10/22 04:33:17;;;;;;;0.00;0.00;;;13.60;99.90;;;;;;5011960;28;20191;-68
2022/10/22 04:35:43;;;;;;;0.10;0.10;;;13.60;99.90;;;;;;5008341;28;20230;-68
2022/10/22 04:38:08;;;;;;;0.00;0.00;;;13.60;99.90;;;;;;5002475;28;20213;-68
2022/10/22 04:40:34;;;;;;;0.00;0.00;;;13.60;99.90;;;;;;5004009;28;20222;-68
2022/10/22 04:42:59;;;;;;;0.00;0.00;;;13.60;99.90;;;;;;5016395;28;20178;-68
2022/10/22 04:45:25;;;;;;;0.00;0.00;;;13.60;99.90;;;;;;4997760;28;20293;-68
2022/10/22 04:47:50;;;;;;;0.00;0.00;;;13.50;99.90;;;;;;5005178;28;20184;-68
2022/10/22 04:50:16;;;;;;;0.00;0.00;;;13.50;99.90;;;;;;5014114;28;20179;-68
2022/10/22 04:52:42;;;;;;;0.00;0.00;;;13.50;99.90;;;;;;4995466;28;20262;-68
2022/10/22 04:55:07;;;;;;;0.00;0.00;;;13.50;99.90;;;;;;5003850;28;20673;-67
2022/10/22 04:57:33;;;;;;;0.00;0.00;;;13.40;99.90;;;;;;5001129;28;20662;-67
2022/10/22 04:59:58;;;;;;;0.00;0.00;;;13.40;99.90;;;;;;4995422;28;20218;-68
2022/10/22 05:02:24;;;;;;;0.00;0.00;;;13.30;99.90;;;;;;5003323;28;20651;-68
2022/10/22 05:04:50;;;;;;;0.00;0.00;;;13.30;99.90;;;;;;4993127;28;20407;-68
2022/10/22 05:07:15;;;;;;;0.00;0.00;;;13.30;99.90;;;;;;5010963;28;20183;-67
2022/10/22 05:09:41;;;;;;;0.00;0.00;;;13.30;99.90;;;;;;5007712;28;20207;-68
2022/10/22 05:12:06;;;;;;;0.00;0.00;;;13.20;99.90;;;;;;4994581;28;20175;-68
2022/10/22 05:14:32;;;;;;;0.00;0.00;;;13.10;99.90;;;;;;4995311;28;20180;-69
2022/10/22 05:16:58;;;;;;;0.00;0.00;;;13.10;99.90;;;;;;4994375;28;20215;-69
2022/10/22 05:19:29;;;;;;;0.00;0.00;;;13.00;99.90;;;;;;4997977;28;20179;-68
2022/10/22 05:21:58;;;;;;;0.00;0.00;;;13.00;99.90;;;;;;4994042;28;20257;-68
2022/10/22 05:24:25;;;;;;;0.10;0.10;;;12.90;99.90;;;;;;5010769;28;20208;-68
2022/10/22 05:26:52;;;;;;;0.00;0.00;;;12.90;99.90;;;;;;5008127;28;20266;-68
2022/10/22 05:29:19;;;;;;;0.00;0.00;;;12.90;99.90;;;;;;5009357;28;20257;-67
2022/10/22 05:31:45;;;;;;;0.00;0.00;;;12.90;99.90;;;;;;5008775;28;20703;-68
2022/10/22 05:34:10;;;;;;;0.00;0.00;;;12.90;99.90;;;;;;4998571;28;20278;-68
2022/10/22 05:36:36;;;;;;;0.00;0.00;;;12.90;99.90;;;;;;4998677;28;20543;-68
2022/10/22 05:39:01;;;;;;;0.00;0.00;;;12.80;99.90;;;;;;5006908;28;20194;-68
2022/10/22 05:41:28;;;;;;;0.00;0.00;;;12.80;99.90;;;;;;5002028;28;20226;-68
2022/10/22 05:43:56;;;;;;;0.00;0.00;;;12.80;99.90;;;;;;5002552;28;20180;-67
2022/10/22 05:46:23;;;;;;;0.00;0.00;;;12.80;99.90;;;;;;5010257;28;20195;-68
2022/10/22 05:48:58;;;;;;;0.00;0.00;;;12.80;99.90;;;;;;5010883;28;20178;-68
2022/10/22 05:51:25;;;;;;;0.00;0.00;;;12.70;99.90;;;;;;4997232;28;20194;-67
2022/10/22 05:53:57;;;;;;;0.00;0.00;;;12.70;99.90;;;;;;4998355;28;20188;-68
2022/10/22 05:56:24;;;;;;;0.00;0.00;;;12.70;99.90;;;;;;5011572;28;20221;-68
2022/10/22 05:58:50;;;;;;;0.00;0.00;;;12.70;99.90;;;;;;4998934;28;20658;-68
2022/10/22 06:01:19;;;;;;;0.00;0.00;;;12.70;99.90;;;;;;5000387;28;20272;-69
2022/10/22 06:03:45;;;;;;;0.00;0.00;;;12.60;99.90;;;;;;5012988;28;20260;-69
2022/10/22 06:06:30;;;;;;;0.00;0.00;;;12.60;99.90;;;;;;5000543;28;20183;-68
2022/10/22 06:09:04;;;;;;;0.00;0.00;;;12.60;99.90;;;;;;5010964;28;20617;-68
2022/10/22 06:11:29;;;;;;;0.00;0.00;;;12.60;99.90;;;;;;4996076;28;20183;-68
2022/10/22 06:13:55;;;;;;;0.00;0.00;;;12.60;99.90;;;;;;4995700;28;20230;-68
2022/10/22 06:16:20;;;;;;;0.00;0.00;;;12.60;99.90;;;;;;4993137;28;20651;-69
2022/10/22 06:18:46;;;;;;;0.00;0.00;;;12.60;99.90;;;;;;5008830;28;20658;-70
2022/10/22 06:21:14;;;;;;;0.00;0.00;;;12.60;99.90;;;;;;5010829;28;20214;-69
2022/10/22 06:23:41;;;;;;;0.00;0.00;;;12.60;99.90;;;;;;5010502;28;20183;-69
2022/10/22 06:26:07;;;;;;;0.00;0.00;;;12.60;99.90;;;;;;5012380;28;20178;-69
2022/10/22 06:28:34;;;;;;;0.00;0.00;;;12.70;99.90;;;;;;5006234;28;20245;-68
2022/10/22 06:31:01;;;;;;;0.00;0.00;;;12.70;99.90;;;;;;5009405;28;20214;-69
2022/10/22 06:33:28;;;;;;;0.00;0.00;;;12.70;99.90;;;;;;5009052;28;20179;-68
2022/10/22 06:35:54;;;;;;;0.00;0.00;;;12.70;99.90;;;;;;4998392;28;20241;-70
2022/10/22 06:38:20;;;;;;;3.15;2.10;;;12.70;99.90;;;;;;5008238;28;20206;-70
2022/10/22 06:40:45;;;;;;;0.00;0.00;;;12.70;99.90;;;;;;4996364;28;20211;-68
2022/10/22 06:43:12;;;;;;;0.00;0.00;;;12.80;99.90;;;;;;4993909;28;20176;-68
2022/10/22 06:45:37;;;;;;;0.00;0.00;;;12.80;99.90;;;;;;4992724;28;20219;-68
2022/10/22 06:48:03;;;;;;;0.08;0.08;;;12.80;99.90;;;;;;5010785;28;20217;-68
2022/10/22 06:50:29;;;;;;;0.00;0.00;;;12.80;99.90;;;;;;5010700;28;20228;-69
2022/10/22 06:52:56;;;;;;;0.15;0.15;;;12.90;99.90;;;;;;5012390;28;20178;-69
2022/10/22 06:55:21;;;;;;;0.00;0.00;;;12.90;99.90;;;;;;4999592;28;20561;-69
2022/10/22 06:57:47;;;;;;;0.00;0.00;;;12.90;99.90;;;;;;4992692;28;20199;-69
2022/10/22 07:00:13;;;;;;;0.00;0.00;;;12.90;99.90;;;;;;5005054;28;20194;-68
2022/10/22 07:02:39;;;;;;;0.00;0.00;;;12.90;99.90;;;;;;5012234;28;20186;-69
2022/10/22 07:05:05;;;;;;;0.00;0.00;;;12.90;99.90;;;;;;5010578;28;20185;-69
2022/10/22 07:07:30;;;;;;;0.00;0.00;;;12.90;99.90;;;;;;5012011;28;20178;-68
2022/10/22 07:09:56;;;;;;;0.00;0.00;;;13.00;99.90;;;;;;5008048;28;20171;-70
2022/10/22 07:12:21;;;;;;;0.00;0.00;;;13.00;99.90;;;;;;5012101;28;20178;-69
2022/10/22 07:14:48;;;;;;;0.00;0.00;;;13.00;99.90;;;;;;5010602;28;20218;-69
2022/10/22 07:17:13;;;;;;;0.00;0.00;;;13.10;99.90;;;;;;5011984;28;20583;-69
2022/10/22 07:19:39;;;;;;;0.00;0.00;;;13.10;99.90;;;;;;5009209;28;20183;-68
2022/10/22 07:22:04;;;;;;;0.00;0.00;;;13.20;99.90;;;;;;5010244;28;20238;-71
2022/10/22 07:24:30;;;;;;;0.00;0.00;;;13.20;99.90;;;;;;5005618;28;20179;-68
2022/10/22 07:26:56;;;;;;;0.00;0.00;;;13.40;99.90;;;;;;4994728;28;20179;-66
2022/10/22 07:29:21;;;;;;;0.00;0.00;;;13.60;99.90;;;;;;5005257;28;20222;-69
2022/10/22 07:31:47;;;;;;;0.00;0.00;;;13.70;99.90;;;;;;5010876;28;20631;-64
2022/10/22 07:34:13;;;;;;;0.00;0.00;;;13.80;99.90;;;;;;5001079;28;20187;-71
2022/10/22 07:36:38;;;;;;;0.30;0.30;;;13.90;99.90;;;;;;4998018;28;20688;-66
2022/10/22 07:39:04;;;;;;;0.00;0.00;;;13.90;99.90;;;;;;4994343;28;20189;-67
2022/10/22 07:41:30;;;;;;;0.00;0.00;;;13.90;99.90;;;;;;4998296;28;20227;-68
2022/10/22 07:43:56;;;;;;;0.10;0.00;;;13.90;99.90;;;;;;4992397;28;20638;-65
2022/10/22 07:46:23;;;;;;;0.05;0.05;;;13.90;99.90;;;;;;5006779;28;20638;-65
2022/10/22 07:48:48;;;;;;;0.00;0.00;;;14.00;99.90;;;;;;5003354;28;20183;-64
2022/10/22 07:51:14;;;;;;;0.00;0.00;;;14.00;99.90;;;;;;5010017;28;20186;-64
2022/10/22 07:53:40;;;;;;;0.00;0.00;;;14.10;99.90;;;;;;5005059;28;20214;-62
2022/10/22 07:56:06;;;;;;;0.00;0.00;;;14.40;99.90;;;;;;5007880;28;20598;-62
2022/10/22 07:58:32;;;;;;;0.00;0.00;;;14.80;99.90;;;;;;5006687;28;20191;-69
2022/10/22 08:01:00;;;;;;;0.68;0.55;;;15.10;99.90;;;;;;4993084;28;20265;-66
2022/10/22 08:03:26;;;;;;;0.00;0.00;;;15.60;99.90;;;;;;5007059;28;20305;-68
2022/10/22 08:05:53;;;;;;;0.10;0.10;;;16.00;99.90;;;;;;5009368;28;20591;-68
2022/10/22 08:08:19;;;;;;;0.00;0.00;;;16.40;99.90;;;;;;5011082;28;20650;-68
2022/10/22 08:10:47;;;;;;;0.00;0.00;;;16.90;99.90;;;;;;5000296;28;20706;-68
2022/10/22 08:13:13;;;;;;;0.00;0.00;;;17.50;99.90;;;;;;5013942;28;20650;-68
2022/10/22 08:15:38;;;;;;;0.00;0.00;;;17.90;99.90;;;;;;5004595;28;20195;-68
2022/10/22 08:18:04;;;;;;;0.00;0.00;;;18.10;99.90;;;;;;5011629;28;20658;-68
2022/10/22 08:20:30;;;;;;;0.00;0.00;;;18.40;99.90;;;;;;5014837;28;20245;-69
2022/10/22 08:22:56;;;;;;;0.00;0.00;;;18.50;99.90;;;;;;5014598;28;20190;-68
2022/10/22 08:25:22;;;;;;;0.00;0.00;;;18.70;99.90;;;;;;5014887;28;20192;-68
2022/10/22 08:27:47;;;;;;;0.00;0.00;;;18.90;99.90;;;;;;5004150;28;20191;-69
2022/10/22 08:30:13;;;;;;;0.00;0.00;;;19.00;99.90;;;;;;5010827;28;20630;-69
2022/10/22 08:32:39;;;;;;;0.10;0.10;;;19.10;99.90;;;;;;5014984;28;20183;-68
2022/10/22 08:35:05;;;;;;;0.00;0.00;;;19.10;99.90;;;;;;5009045;28;20182;-68
2022/10/22 08:37:30;;;;;;;0.00;0.00;;;19.20;99.90;;;;;;4995998;28;20726;-68
2022/10/22 08:39:56;;;;;;;0.00;0.00;;;19.30;99.90;;;;;;4995084;28;20246;-68
2022/10/22 08:43:03;;;;;;;0.00;0.00;;;19.40;99.90;;;;;;5011102;28;20179;-68
2022/10/22 08:45:42;;;;;;;0.00;0.00;;;19.50;99.90;;;;;;5006538;28;20281;-68
2022/10/22 08:48:32;;;;;;;0.00;0.00;;;19.60;99.90;;;;;;5003321;28;20186;-68
2022/10/22 08:50:57;;;;;;;0.00;0.00;;;19.60;99.90;;;;;;5003285;28;20182;-68
2022/10/22 08:54:05;;;;;;;0.00;0.00;;;19.60;99.90;;;;;;5003497;28;20549;-68
2022/10/22 08:56:34;;;;;;;0.00;0.00;;;19.80;99.90;;;;;;4988241;28;20217;-69
2022/10/22 08:59:10;;;;;;;0.00;0.00;;;19.80;99.90;;;;;;5008367;28;20198;-68
2022/10/22 09:01:40;;;;;;;0.00;0.00;;;19.80;99.90;;;;;;5009369;28;20218;-68
2022/10/22 09:04:09;;;;;;;0.00;0.00;;;19.80;99.90;;;;;;4998753;28;20266;-66
2022/10/22 09:06:37;;;;;;;0.10;0.05;;;19.70;99.90;;;;;;5014098;28;20655;-68
2022/10/22 09:09:14;;;;;;;0.00;0.00;;;19.80;99.90;;;;;;5011713;28;20651;-68
2022/10/22 09:11:44;;;;;;;0.00;0.00;;;19.90;99.90;;;;;;5013734;28;20280;-68
2022/10/22 09:14:15;;;;;;;0.00;0.00;;;20.10;99.90;;;;;;5013821;28;20189;-69
2022/10/22 09:16:49;;;;;;;0.00;0.00;;;20.20;99.90;;;;;;5013749;28;20277;-68
2022/10/22 09:19:31;;;;;;;0.00;0.00;;;20.40;99.90;;;;;;5005097;28;20183;-69
2022/10/22 09:22:01;;;;;;;0.00;0.00;;;20.50;99.90;;;;;;4998663;28;20219;-68
2022/10/22 09:24:37;;;;;;;0.10;0.10;;;20.60;99.90;;;;;;5007130;28;20218;-69
2022/10/22 09:27:22;;;;;;;0.00;0.00;;;20.70;99.90;;;;;;5011354;28;20183;-69
2022/10/22 09:29:48;;;;;;;0.00;0.00;;;20.70;99.90;;;;;;5003134;28;20572;-69
2022/10/22 09:32:15;;;;;;;0.00;0.00;;;20.70;99.90;;;;;;4999380;28;20178;-68
2022/10/22 09:34:43;;;;;;;0.00;0.00;;;20.70;99.90;;;;;;5008649;28;20183;-68
2022/10/22 09:37:09;;;;;;;0.10;0.10;;;20.70;99.90;;;;;;5009131;28;20179;-68
2022/10/22 09:39:43;;;;;;;0.00;0.00;;;20.50;99.90;;;;;;5013519;28;20729;-69
2022/10/22 09:42:12;;;;;;;0.00;0.00;;;20.50;99.90;;;;;;5007228;28;20214;-67
2022/10/22 09:44:38;;;;;;;0.00;0.00;;;20.60;99.90;;;;;;4998906;28;20191;-68
2022/10/22 09:47:06;;;;;;;0.00;0.00;;;20.60;99.90;;;;;;5004453;28;20191;-68
2022/10/22 09:49:34;;;;;;;0.00;0.00;;;20.60;99.90;;;;;;5004509;28;20597;-68
2022/10/22 09:52:00;;;;;;;0.00;0.00;;;20.60;99.90;;;;;;5005477;28;20190;-68
2022/10/22 09:54:40;;;;;;;0.00;0.00;;;20.50;99.90;;;;;;5009882;28;20191;-68
2022/10/22 09:57:17;;;;;;;0.00;0.00;;;20.60;99.90;;;;;;5001367;28;20172;-66
2022/10/22 09:59:46;;;;;;;0.05;0.00;;;20.70;99.90;;;;;;4993522;28;20683;-68
2022/10/22 10:02:25;;;;;;;0.00;0.00;;;20.70;99.90;;;;;;5009305;28;20225;-68
2022/10/22 10:04:56;;;;;;;0.00;0.00;;;20.80;99.90;;;;;;5000273;28;20174;-68
2022/10/22 10:07:29;;;;;;;0.00;0.00;;;20.80;99.90;;;;;;5006746;28;20597;-68
2022/10/22 10:09:54;;;;;;;0.00;0.00;;;20.70;99.90;;;;;;5006299;28;20310;-68
2022/10/22 10:12:44;;;;;;;0.00;0.00;;;20.70;99.90;;;;;;5011216;28;20693;-68
2022/10/22 10:15:24;;;;;;;0.00;0.00;;;20.70;99.90;;;;;;5011673;28;20194;-67
2022/10/22 10:17:52;;;;;;;0.00;0.00;;;20.70;99.90;;;;;;5003284;28;20725;-68
2022/10/22 10:20:26;;;;;;;0.00;0.00;;;20.60;99.90;;;;;;4997249;28;20199;-67
2022/10/22 10:23:16;;;;;;;0.00;0.00;;;20.60;99.90;;;;;;5011035;28;20186;-67
2022/10/22 10:25:53;;;;;;;0.00;0.00;;;20.60;99.90;;;;;;5009743;28;20175;-67
2022/10/22 10:28:33;;;;;;;0.00;0.00;;;20.70;99.90;;;;;;4998149;28;21939;-68
2022/10/22 10:31:02;;;;;;;0.00;0.00;;;20.90;99.90;;;;;;5011448;28;20221;-67
2022/10/22 10:33:39;;;;;;;0.00;0.00;;;20.80;99.90;;;;;;5007743;28;20262;-67
2022/10/22 10:36:33;;;;;;;0.00;0.00;;;20.80;99.90;;;;;;4993093;28;20171;-67
2022/10/22 10:39:22;;;;;;;0.00;0.00;;;20.70;99.90;;;;;;5012297;28;20657;-67
2022/10/22 10:41:57;;;;;;;0.00;0.00;;;20.90;99.90;;;;;;5010931;28;20685;-66
2022/10/22 10:44:47;;;;;;;0.00;0.00;;;20.90;99.90;;;;;;5009562;28;20225;-67
2022/10/22 10:47:33;;;;;;;0.10;0.10;;;21.10;99.90;;;;;;5012406;28;20576;-65
2022/10/22 10:50:25;;;;;;;0.00;0.00;;;21.20;99.90;;;;;;4999854;28;20183;-65
2022/10/22 10:53:02;;;;;;;0.00;0.00;;;21.20;99.90;;;;;;5009022;28;20594;-66
2022/10/22 10:55:37;;;;;;;0.00;0.00;;;21.20;99.90;;;;;;4998336;28;20734;-66
2022/10/22 10:58:28;;;;;;;0.08;0.08;;;21.30;99.90;;;;;;5012395;28;20248;-66
2022/10/22 11:01:01;;;;;;;0.10;0.10;;;21.30;99.90;;;;;;5012122;28;20349;-66
2022/10/22 11:03:35;;;;;;;0.00;0.00;;;21.30;99.90;;;;;;5012398;28;20189;-66
2022/10/22 11:06:06;;;;;;;0.00;0.00;;;21.40;99.90;;;;;;5012351;28;20205;-66
2022/10/22 11:08:47;;;;;;;0.00;0.00;;;21.40;99.90;;;;;;5013260;28;20197;-66
2022/10/22 11:11:34;;;;;;;0.00;0.00;;;21.60;99.90;;;;;;5009538;28;20192;-66
2022/10/22 11:14:14;;;;;;;0.00;0.00;;;21.50;99.90;;;;;;5002635;28;20174;-66
2022/10/22 11:16:52;;;;;;;0.00;0.00;;;21.50;99.90;;;;;;5012311;28;20182;-67
2022/10/22 11:19:35;;;;;;;0.00;0.00;;;21.70;99.90;;;;;;4992449;28;20238;-65
2022/10/22 11:22:13;;;;;;;0.00;0.00;;;21.70;99.90;;;;;;4992439;28;20262;-66
2022/10/22 11:25:13;;;;;;;0.00;0.00;;;21.80;99.90;;;;;;4992613;28;20183;-66
2022/10/22 11:27:44;;;;;;;0.00;0.00;;;21.90;99.90;;;;;;4992897;28;20190;-66
2022/10/22 11:30:19;;;;;;;0.00;0.00;;;21.80;99.90;;;;;;5010677;28;20238;-66
2022/10/22 11:32:57;;;;;;;0.00;0.00;;;21.70;99.90;;;;;;5006806;28;20266;-67
2022/10/22 11:35:30;;;;;;;0.00;0.00;;;21.60;99.90;;;;;;5010436;28;20186;-66
2022/10/22 11:37:57;;;;;;;0.00;0.00;;;21.50;99.90;;;;;;5011839;28;20215;-67
2022/10/22 11:40:28;;;;;;;0.00;0.00;;;21.40;99.90;;;;;;5011837;28;20588;-65
2022/10/22 11:42:57;;;;;;;0.00;0.00;;;21.40;99.90;;;;;;5011768;28;20193;-67
2022/10/22 11:45:22;;;;;;;0.10;0.10;;;21.50;99.90;;;;;;4999558;28;20195;-66
2022/10/22 11:48:18;;;;;;;0.00;0.00;;;21.50;99.90;;;;;;4998306;28;20190;-66
2022/10/22 11:51:10;;;;;;;0.00;0.00;;;21.60;99.90;;;;;;4991504;28;20246;-66
2022/10/22 11:53:37;;;;;;;0.00;0.00;;;21.70;99.90;;;;;;4988575;28;20203;-66
2022/10/22 11:56:06;;;;;;;0.00;0.00;;;21.70;99.90;;;;;;4996977;28;20643;-67
2022/10/22 11:58:38;;;;;;;0.00;0.00;;;21.70;99.90;;;;;;5005861;28;20652;-67
2022/10/22 12:01:06;;;;;;;0.00;0.00;;;21.70;99.90;;;;;;5004424;28;20207;-66
2022/10/22 12:03:32;;;;;;;0.00;0.00;;;21.80;99.90;;;;;;4996753;28;20560;-66
2022/10/22 12:06:14;;;;;;;0.00;0.00;;;21.80;99.90;;;;;;5001758;28;20175;-66
2022/10/22 12:08:48;;;;;;;0.00;0.00;;;21.80;99.90;;;;;;5015407;28;20183;-66
2022/10/22 12:11:21;;;;;;;0.00;0.00;;;21.90;99.90;;;;;;5007769;28;20661;-66
2022/10/22 12:14:15;;;;;;;0.00;0.00;;;21.90;99.90;;;;;;4996425;28;20183;-66
2022/10/22 12:16:50;;;;;;;0.00;0.00;;;21.80;99.90;;;;;;5004106;28;20187;-68
2022/10/22 12:19:24;;;;;;;0.00;0.00;;;21.60;99.90;;;;;;5009159;28;20213;-68
2022/10/22 12:22:06;;;;;;;0.00;0.00;;;21.50;99.90;;;;;;5015377;28;20217;-67
2022/10/22 12:24:43;;;;;;;0.00;0.00;;;21.60;99.90;;;;;;5002006;28;20184;-69
2022/10/22 12:27:39;;;;;;;0.00;0.00;;;21.80;99.90;;;;;;5014994;28;20190;-68
2022/10/22 12:30:26;;;;;;;0.00;0.00;;;21.90;99.90;;;;;;5006096;28;20230;-68
2022/10/22 12:33:00;;;;;;;0.00;0.00;;;22.20;99.90;;;;;;5005185;28;20178;-68
2022/10/22 12:35:29;;;;;;;0.00;0.00;;;22.30;99.90;;;;;;4994830;28;20261;-67
2022/10/22 12:37:57;;;;;;;0.00;0.00;;;22.40;99.90;;;;;;5000996;28;20246;-68
2022/10/22 12:40:26;;;;;;;0.00;0.00;;;22.50;99.90;;;;;;5013086;28;20208;-67
2022/10/22 12:42:54;;;;;;;0.00;0.00;;;22.50;99.90;;;;;;5014397;28;20213;-67
2022/10/22 12:45:21;;;;;;;0.00;0.00;;;22.50;99.90;;;;;;5014557;28;20575;-68
2022/10/22 12:47:49;;;;;;;0.00;0.00;;;22.50;99.80;;;;;;5014575;28;20317;-68
2022/10/22 12:50:22;;;;;;;0.00;0.00;;;22.50;99.40;;;;;;5014301;28;20171;-68
2022/10/22 12:52:48;;;;;;;0.00;0.00;;;22.40;99.70;;;;;;5014445;28;20182;-68
2022/10/22 12:55:20;;;;;;;0.00;0.00;;;22.40;99.90;;;;;;5014339;28;20740;-68
2022/10/22 12:57:47;;;;;;;0.25;0.25;;;22.30;99.30;;;;;;5013971;28;20179;-68
2022/10/22 13:00:33;;;;;;;0.00;0.00;;;22.10;99.60;;;;;;5008746;28;20234;-67
2022/10/22 13:03:02;;;;;;;0.00;0.00;;;22.00;99.90;;;;;;5010514;28;20194;-69
2022/10/22 13:05:37;;;;;;;0.00;0.00;;;21.80;99.30;;;;;;4994507;28;20639;-68